Time;durP1;ratioP1;P1;durP2;ratioP2;P2;SDS_P1;SDS_P2;PMS_P1;PMS_P2;Temp;Humidity;BMP_temperature;BMP_pressure;BME280_temperature;BME280_humidity;BME280_pressure;Samples;Min_cycle;Max_cycle;Signal;HPM_P1;HPM_P2
2022/12/31 00:01:06;;;;;;;10.67;0.83;;;;;;;;;;6210203;23;20067;-65
2022/12/31 00:03:34;;;;;;;16.17;1.65;;;;;;;;;;6203453;23;20469;-66
2022/12/31 00:06:11;;;;;;;7.35;0.52;;;;;;;;;;6207339;23;20384;-65
2022/12/31 00:08:40;;;;;;;10.50;1.10;;;;;;;;;;6189440;23;20011;-65
2022/12/31 00:11:08;;;;;;;10.02;0.80;;;;;;;;;;6180350;23;20044;-65
2022/12/31 00:13:35;;;;;;;7.40;0.60;;;;;;;;;;6213540;23;20059;-65
2022/12/31 00:16:07;;;;;;;8.85;0.98;;;;;;;;;;6195874;23;20032;-66
2022/12/31 00:18:43;;;;;;;10.60;1.17;;;;;;;;;;6206029;23;20020;-67
2022/12/31 00:21:11;;;;;;;9.90;1.00;;;;;;;;;;6219207;23;20518;-66
2022/12/31 00:23:39;;;;;;;11.00;0.98;;;;;;;;;;6208134;23;20470;-66
2022/12/31 00:26:08;;;;;;;13.60;1.20;;;;;;;;;;6220265;23;20440;-65
2022/12/31 00:28:37;;;;;;;11.18;1.27;;;;;;;;;;6172511;23;20463;-60
2022/12/31 00:31:05;;;;;;;9.45;0.82;;;;;;;;;;6215699;23;20058;-65
2022/12/31 00:33:33;;;;;;;13.75;1.08;;;;;;;;;;6203033;23;20027;-66
2022/12/31 00:36:04;;;;;;;9.05;1.73;;;;;;;;;;6215001;23;20670;-65
2022/12/31 00:38:32;;;;;;;7.47;0.87;;;;;;;;;;6219184;23;20115;-65
2022/12/31 00:41:00;;;;;;;8.55;0.93;;;;;;;;;;6196216;23;20022;-65
2022/12/31 00:43:29;;;;;;;10.80;1.38;;;;;;;;;;6216530;23;20186;-65
2022/12/31 00:45:56;;;;;;;11.25;1.60;;;;;;;;;;6208852;23;20346;-63
2022/12/31 00:48:25;;;;;;;10.98;1.02;;;;;;;;;;6215369;23;20043;-66
2022/12/31 00:50:53;;;;;;;12.90;1.27;;;;;;;;;;6211130;23;20094;-65
2022/12/31 00:53:21;;;;;;;7.20;0.75;;;;;;;;;;6210950;23;20432;-64
2022/12/31 00:55:48;;;;;;;6.93;0.80;;;;;;;;;;6214157;23;20016;-65
2022/12/31 00:58:16;;;;;;;9.43;1.13;;;;;;;;;;6210467;23;20030;-65
2022/12/31 01:00:45;;;;;;;8.95;0.65;;;;;;;;;;6213294;23;20346;-64
2022/12/31 01:03:13;;;;;;;10.77;1.83;;;;;;;;;;6207731;23;20062;-66
2022/12/31 01:05:49;;;;;;;6.95;0.68;;;;;;;;;;6218509;23;20020;-67
2022/12/31 01:08:17;;;;;;;10.40;1.30;;;;;;;;;;6219287;23;20027;-63
2022/12/31 01:13:32;;;;;;;9.55;0.98;;;;;;;;;;6216004;23;20095;-65
2022/12/31 01:16:07;;;;;;;6.90;0.83;;;;;;;;;;6209689;23;20094;-65
2022/12/31 01:18:37;;;;;;;9.32;0.82;;;;;;;;;;6206746;23;20051;-66
2022/12/31 01:21:06;;;;;;;11.10;1.13;;;;;;;;;;6221423;23;20012;-64
2022/12/31 01:23:34;;;;;;;7.05;1.00;;;;;;;;;;6203827;23;20092;-65
2022/12/31 01:26:06;;;;;;;7.68;0.85;;;;;;;;;;6179351;23;20276;-65
2022/12/31 01:28:35;;;;;;;9.80;1.00;;;;;;;;;;6213008;23;20466;-65
2022/12/31 01:31:03;;;;;;;7.60;0.85;;;;;;;;;;6200714;23;20447;-65
2022/12/31 01:33:32;;;;;;;11.60;1.02;;;;;;;;;;6188605;23;20016;-65
2022/12/31 01:36:04;;;;;;;11.23;1.63;;;;;;;;;;6213459;23;20024;-64
2022/12/31 01:38:31;;;;;;;10.85;1.20;;;;;;;;;;6216071;23;20082;-64
2022/12/31 01:41:00;;;;;;;8.87;0.67;;;;;;;;;;6207169;23;20016;-64
2022/12/31 01:43:47;;;;;;;5.38;0.60;;;;;;;;;;6214334;23;20358;-66
2022/12/31 01:46:18;;;;;;;5.35;0.85;;;;;;;;;;6219210;23;20099;-64
2022/12/31 01:48:49;;;;;;;5.30;0.65;;;;;;;;;;6198460;23;20027;-64
2022/12/31 01:51:17;;;;;;;8.15;0.93;;;;;;;;;;6218694;23;20054;-59
2022/12/31 01:53:45;;;;;;;6.10;0.83;;;;;;;;;;6213672;23;20347;-64
2022/12/31 01:56:14;;;;;;;6.22;0.73;;;;;;;;;;6203038;23;20406;-64
2022/12/31 01:58:43;;;;;;;7.10;0.60;;;;;;;;;;6215145;23;20016;-64
2022/12/31 02:01:13;;;;;;;7.55;0.77;;;;;;;;;;6213126;23;20062;-64
2022/12/31 02:03:42;;;;;;;7.05;0.63;;;;;;;;;;6217738;23;20050;-64
2022/12/31 02:06:14;;;;;;;4.67;0.50;;;;;;;;;;6199470;23;20099;-64
2022/12/31 02:08:43;;;;;;;6.38;0.93;;;;;;;;;;6219596;23;20451;-65
2022/12/31 02:11:25;;;;;;;11.02;1.27;;;;;;;;;;6184535;23;20035;-65
2022/12/31 02:13:54;;;;;;;5.72;0.47;;;;;;;;;;6204640;23;20020;-65
2022/12/31 02:16:30;;;;;;;5.35;0.57;;;;;;;;;;6192715;23;20015;-66
2022/12/31 02:19:00;;;;;;;6.77;0.83;;;;;;;;;;6206600;23;20314;-66
2022/12/31 02:21:50;;;;;;;8.73;0.70;;;;;;;;;;6219026;23;20016;-65
2022/12/31 02:24:35;;;;;;;6.15;0.80;;;;;;;;;;6219861;23;20023;-65
2022/12/31 02:27:06;;;;;;;6.78;0.55;;;;;;;;;;6209504;23;20495;-64
2022/12/31 02:29:41;;;;;;;7.55;0.57;;;;;;;;;;6218002;23;20012;-66
2022/12/31 02:32:13;;;;;;;5.90;0.60;;;;;;;;;;6203690;23;20095;-64
2022/12/31 02:34:47;;;;;;;6.53;0.60;;;;;;;;;;6212012;23;20062;-66
2022/12/31 02:37:19;;;;;;;6.55;0.80;;;;;;;;;;6225143;23;20012;-66
2022/12/31 02:39:49;;;;;;;6.88;0.45;;;;;;;;;;6218565;23;20116;-65
2022/12/31 02:42:16;;;;;;;5.57;0.57;;;;;;;;;;6201393;23;20044;-55
2022/12/31 02:44:44;;;;;;;5.57;0.60;;;;;;;;;;6220097;23;20494;-65
2022/12/31 02:47:20;;;;;;;4.68;0.60;;;;;;;;;;6206551;23;20066;-65
2022/12/31 02:49:54;;;;;;;4.32;0.70;;;;;;;;;;6217638;23;20128;-65
2022/12/31 02:52:27;;;;;;;4.00;0.40;;;;;;;;;;6213249;23;20040;-65
2022/12/31 02:55:00;;;;;;;4.38;0.40;;;;;;;;;;6223204;23;20486;-65
2022/12/31 02:57:30;;;;;;;4.87;0.43;;;;;;;;;;6209732;23;20067;-65
2022/12/31 03:02:48;;;;;;;3.00;0.30;;;;;;;;;;6211380;23;20020;-65
2022/12/31 03:05:17;;;;;;;3.75;0.32;;;;;;;;;;6220313;23;20460;-64
2022/12/31 03:07:45;;;;;;;3.53;0.40;;;;;;;;;;6199378;23;20465;-64
2022/12/31 03:10:13;;;;;;;3.23;0.40;;;;;;;;;;6217711;23;20012;-65
2022/12/31 03:12:47;;;;;;;4.32;0.63;;;;;;;;;;6198710;23;20043;-65
2022/12/31 03:15:24;;;;;;;2.40;0.47;;;;;;;;;;6216529;23;20096;-65
2022/12/31 03:17:58;;;;;;;3.30;0.32;;;;;;;;;;6217903;23;20016;-64
2022/12/31 03:23:14;;;;;;;3.43;0.30;;;;;;;;;;6200145;23;20039;-65
2022/12/31 03:25:43;;;;;;;4.22;0.50;;;;;;;;;;6210762;23;20094;-66
2022/12/31 03:28:12;;;;;;;4.28;0.43;;;;;;;;;;6213552;23;20624;-66
2022/12/31 03:30:41;;;;;;;2.72;0.40;;;;;;;;;;6210115;23;20035;-65
2022/12/31 03:33:13;;;;;;;2.88;0.30;;;;;;;;;;6221345;23;20058;-66
2022/12/31 03:35:41;;;;;;;3.70;0.50;;;;;;;;;;6215263;23;20470;-65
2022/12/31 03:38:09;;;;;;;4.85;0.57;;;;;;;;;;6210441;23;20016;-64
2022/12/31 03:40:38;;;;;;;3.28;0.60;;;;;;;;;;6211409;23;20398;-65
2022/12/31 03:43:06;;;;;;;2.75;0.60;;;;;;;;;;6217381;23;20091;-65
2022/12/31 03:45:34;;;;;;;3.88;0.60;;;;;;;;;;6208723;23;20095;-65
2022/12/31 03:48:01;;;;;;;3.93;0.70;;;;;;;;;;6215402;23;20024;-64
2022/12/31 03:50:31;;;;;;;4.75;0.70;;;;;;;;;;6207190;23;20043;-65
2022/12/31 03:52:59;;;;;;;4.93;0.50;;;;;;;;;;6212103;23;20369;-65
2022/12/31 03:55:26;;;;;;;4.75;0.80;;;;;;;;;;6216356;23;20042;-64
2022/12/31 03:57:54;;;;;;;4.78;0.77;;;;;;;;;;6209351;23;20455;-64
2022/12/31 04:00:22;;;;;;;3.40;0.50;;;;;;;;;;6215231;23;20019;-65
2022/12/31 04:02:50;;;;;;;4.72;0.60;;;;;;;;;;6210126;23;20491;-63
2022/12/31 04:05:18;;;;;;;2.70;0.40;;;;;;;;;;6225347;23;20019;-63
2022/12/31 04:07:47;;;;;;;3.85;0.32;;;;;;;;;;6206641;23;20031;-63
2022/12/31 04:10:17;;;;;;;4.25;0.45;;;;;;;;;;6191175;23;20683;-62
2022/12/31 04:12:44;;;;;;;6.87;0.50;;;;;;;;;;6219872;23;20431;-62
2022/12/31 04:15:15;;;;;;;3.03;0.60;;;;;;;;;;6217816;23;20315;-64
2022/12/31 04:17:43;;;;;;;4.28;0.30;;;;;;;;;;6208850;23;20458;-62
2022/12/31 04:20:11;;;;;;;3.40;0.38;;;;;;;;;;6215799;23;20043;-65
2022/12/31 04:22:38;;;;;;;4.15;0.47;;;;;;;;;;6222843;23;20047;-63
2022/12/31 04:25:10;;;;;;;5.53;0.60;;;;;;;;;;6206904;23;20436;-63
2022/12/31 04:27:38;;;;;;;3.35;0.50;;;;;;;;;;6217034;23;20051;-65
2022/12/31 04:30:06;;;;;;;2.10;0.40;;;;;;;;;;6186165;23;20020;-63
2022/12/31 04:32:34;;;;;;;3.67;0.40;;;;;;;;;;6218486;23;20020;-62
2022/12/31 04:35:02;;;;;;;5.55;0.47;;;;;;;;;;6216537;23;20059;-64
2022/12/31 04:37:29;;;;;;;3.40;0.50;;;;;;;;;;6220038;23;20522;-62
2022/12/31 04:39:57;;;;;;;5.78;0.98;;;;;;;;;;6212510;23;20050;-61
2022/12/31 04:42:36;;;;;;;5.68;0.40;;;;;;;;;;6219311;23;20016;-66
2022/12/31 04:45:04;;;;;;;4.90;0.75;;;;;;;;;;6223380;23;20043;-64
2022/12/31 04:47:32;;;;;;;7.10;0.65;;;;;;;;;;6175162;23;20051;-61
2022/12/31 04:49:59;;;;;;;7.07;0.50;;;;;;;;;;6216104;23;20633;-63
2022/12/31 04:52:27;;;;;;;10.38;1.23;;;;;;;;;;6167744;23;20392;-64
2022/12/31 04:54:55;;;;;;;8.55;0.80;;;;;;;;;;6224052;23;20024;-63
2022/12/31 04:57:22;;;;;;;11.27;0.68;;;;;;;;;;6188064;23;20387;-64
2022/12/31 04:59:52;;;;;;;4.22;0.60;;;;;;;;;;6208481;23;20391;-63
2022/12/31 05:02:20;;;;;;;6.97;1.17;;;;;;;;;;6216070;23;20512;-64
2022/12/31 05:04:48;;;;;;;7.68;0.50;;;;;;;;;;6221652;23;20078;-64
2022/12/31 05:07:16;;;;;;;8.45;1.10;;;;;;;;;;6208520;23;20044;-64
2022/12/31 05:09:43;;;;;;;8.13;0.80;;;;;;;;;;6213696;23;20099;-64
2022/12/31 05:12:11;;;;;;;12.27;1.05;;;;;;;;;;6207826;23;20012;-64
2022/12/31 05:14:39;;;;;;;5.63;1.10;;;;;;;;;;6219635;23;20016;-64
2022/12/31 05:17:08;;;;;;;5.70;1.00;;;;;;;;;;6210370;23;20037;-64
2022/12/31 05:19:36;;;;;;;6.70;0.88;;;;;;;;;;6219042;23;20051;-65
2022/12/31 05:24:50;;;;;;;6.80;1.00;;;;;;;;;;6194820;23;20663;-63
2022/12/31 05:27:18;;;;;;;5.47;0.80;;;;;;;;;;6225391;23;20066;-63
2022/12/31 05:29:46;;;;;;;9.23;0.73;;;;;;;;;;6202959;23;20054;-64
2022/12/31 05:32:15;;;;;;;8.18;1.40;;;;;;;;;;6220954;23;20112;-65
2022/12/31 05:34:43;;;;;;;7.70;1.20;;;;;;;;;;6213560;23;20043;-62
2022/12/31 05:37:12;;;;;;;9.65;1.13;;;;;;;;;;6216179;23;20043;-62
2022/12/31 05:39:41;;;;;;;13.17;1.57;;;;;;;;;;6195386;23;20420;-62
2022/12/31 05:42:09;;;;;;;14.27;1.50;;;;;;;;;;6210959;23;20350;-62
2022/12/31 05:44:36;;;;;;;10.65;0.73;;;;;;;;;;6221766;23;20016;-62
2022/12/31 05:47:04;;;;;;;8.80;1.42;;;;;;;;;;6206814;23;20550;-62
2022/12/31 05:49:33;;;;;;;11.43;0.90;;;;;;;;;;6193372;23;20043;-62
2022/12/31 05:52:00;;;;;;;10.03;1.10;;;;;;;;;;6171503;23;20654;-63
2022/12/31 05:54:28;;;;;;;7.80;1.00;;;;;;;;;;6211279;23;20016;-62
2022/12/31 05:56:56;;;;;;;11.57;0.98;;;;;;;;;;6208461;23;20016;-64
2022/12/31 05:59:23;;;;;;;7.75;1.02;;;;;;;;;;6211338;23;20036;-62
2022/12/31 06:01:51;;;;;;;9.57;1.10;;;;;;;;;;6221861;23;20082;-63
2022/12/31 06:04:19;;;;;;;6.17;0.93;;;;;;;;;;6212364;23;20546;-62
2022/12/31 06:06:48;;;;;;;10.23;1.10;;;;;;;;;;6215866;23;20085;-64
2022/12/31 06:09:16;;;;;;;8.93;0.70;;;;;;;;;;6208062;23;20340;-62
2022/12/31 06:11:44;;;;;;;6.03;0.85;;;;;;;;;;6210140;23;20012;-65
2022/12/31 06:14:12;;;;;;;11.43;2.28;;;;;;;;;;6209454;23;20665;-63
2022/12/31 06:16:39;;;;;;;16.87;1.60;;;;;;;;;;6222578;23;20066;-62
2022/12/31 06:19:07;;;;;;;7.70;1.23;;;;;;;;;;6211660;23;20020;-63
2022/12/31 06:21:38;;;;;;;9.13;1.10;;;;;;;;;;6210381;23;20403;-64
2022/12/31 06:24:07;;;;;;;19.17;1.73;;;;;;;;;;6220570;23;20100;-62
2022/12/31 06:26:36;;;;;;;12.07;2.03;;;;;;;;;;6210107;23;20095;-62
2022/12/31 06:29:03;;;;;;;11.23;1.40;;;;;;;;;;6216646;23;20367;-63
2022/12/31 06:31:31;;;;;;;15.02;2.08;;;;;;;;;;6204198;23;20130;-64
2022/12/31 06:33:59;;;;;;;12.18;1.50;;;;;;;;;;6216382;23;20099;-63
2022/12/31 06:36:27;;;;;;;12.02;1.60;;;;;;;;;;6204718;23;20016;-62
2022/12/31 06:38:55;;;;;;;18.92;1.95;;;;;;;;;;6211875;23;20020;-62
2022/12/31 06:41:23;;;;;;;13.83;1.40;;;;;;;;;;6204480;23;20309;-62
2022/12/31 06:43:51;;;;;;;15.40;2.00;;;;;;;;;;6219399;23;20066;-63
2022/12/31 06:46:19;;;;;;;17.67;2.25;;;;;;;;;;6208319;23;20043;-63
2022/12/31 06:48:46;;;;;;;19.08;1.60;;;;;;;;;;6217241;23;20020;-62
2022/12/31 06:51:16;;;;;;;14.57;2.10;;;;;;;;;;6211071;23;20027;-64
2022/12/31 06:53:44;;;;;;;13.13;2.03;;;;;;;;;;6216317;23;20012;-63
2022/12/31 06:56:14;;;;;;;13.63;1.92;;;;;;;;;;6207132;23;20043;-64
2022/12/31 06:58:44;;;;;;;17.20;2.58;;;;;;;;;;6217346;23;20423;-67
2022/12/31 07:01:22;;;;;;;14.27;2.05;;;;;;;;;;6206426;23;20012;-65
2022/12/31 07:03:55;;;;;;;19.77;2.08;;;;;;;;;;6206628;23;20020;-65
2022/12/31 07:06:27;;;;;;;21.23;2.30;;;;;;;;;;6214643;23;20027;-65
2022/12/31 07:09:00;;;;;;;9.55;1.58;;;;;;;;;;6211316;23;20509;-61
2022/12/31 07:11:30;;;;;;;14.55;2.47;;;;;;;;;;6208638;23;20119;-62
2022/12/31 07:14:08;;;;;;;16.75;2.10;;;;;;;;;;6217014;23;20044;-63
2022/12/31 07:16:42;;;;;;;18.92;1.83;;;;;;;;;;6177614;23;20225;-64
2022/12/31 07:19:16;;;;;;;15.73;2.57;;;;;;;;;;6214458;23;20016;-65
2022/12/31 07:21:44;;;;;;;15.43;2.03;;;;;;;;;;6209328;23;20019;-65
2022/12/31 07:24:12;;;;;;;18.85;2.00;;;;;;;;;;6191603;23;20070;-65
2022/12/31 07:26:52;;;;;;;11.50;2.22;;;;;;;;;;6170024;23;20599;-63
2022/12/31 07:29:29;;;;;;;16.63;2.17;;;;;;;;;;6205892;23;20020;-63
2022/12/31 07:32:01;;;;;;;18.77;2.27;;;;;;;;;;6213526;23;20016;-63
2022/12/31 07:34:38;;;;;;;16.33;2.83;;;;;;;;;;6219564;23;20019;-63
2022/12/31 07:37:08;;;;;;;13.77;2.10;;;;;;;;;;6221342;23;20059;-64
2022/12/31 07:39:39;;;;;;;12.32;1.90;;;;;;;;;;6195478;23;20012;-63
2022/12/31 07:42:11;;;;;;;12.75;1.60;;;;;;;;;;6218347;23;20016;-63
2022/12/31 07:44:47;;;;;;;10.23;1.00;;;;;;;;;;6178696;23;20419;-63
2022/12/31 07:47:20;;;;;;;14.93;1.88;;;;;;;;;;6217497;23;20030;-65
2022/12/31 07:49:48;;;;;;;12.32;1.60;;;;;;;;;;6205375;23;20051;-63
2022/12/31 07:52:17;;;;;;;11.27;1.38;;;;;;;;;;6210409;23;20020;-64
2022/12/31 07:54:44;;;;;;;14.45;1.80;;;;;;;;;;6200641;23;20521;-63
2022/12/31 07:57:14;;;;;;;12.07;1.43;;;;;;;;;;6215075;23;20012;-64
2022/12/31 07:59:51;;;;;;;10.68;1.40;;;;;;;;;;6217297;23;20052;-63
2022/12/31 08:02:24;;;;;;;9.40;1.80;;;;;;;;;;6213557;23;20042;-63
2022/12/31 08:04:58;;;;;;;11.77;1.35;;;;;;;;;;6186442;23;20016;-63
2022/12/31 08:07:32;;;;;;;7.97;1.40;;;;;;;;;;6217659;23;20012;-64
2022/12/31 08:10:02;;;;;;;9.33;1.30;;;;;;;;;;6183114;23;20016;-63
2022/12/31 08:12:32;;;;;;;7.53;0.90;;;;;;;;;;6218534;23;20016;-63
2022/12/31 08:15:01;;;;;;;11.40;1.13;;;;;;;;;;6210039;23;20074;-64
2022/12/31 08:17:29;;;;;;;8.25;1.10;;;;;;;;;;6222841;23;20019;-64
2022/12/31 08:19:57;;;;;;;9.95;0.93;;;;;;;;;;6210890;23;20084;-62
2022/12/31 08:22:35;;;;;;;6.90;0.80;;;;;;;;;;6222965;23;20058;-63
2022/12/31 08:25:11;;;;;;;9.88;1.23;;;;;;;;;;6203638;23;20103;-63
2022/12/31 08:27:43;;;;;;;6.88;0.75;;;;;;;;;;6208162;23;20062;-64
2022/12/31 08:30:13;;;;;;;7.22;1.00;;;;;;;;;;6214596;23;20052;-63
2022/12/31 08:32:43;;;;;;;11.82;0.77;;;;;;;;;;6214062;23;20324;-63
2022/12/31 08:35:16;;;;;;;7.67;0.70;;;;;;;;;;6210534;23;20043;-64
2022/12/31 08:37:49;;;;;;;8.52;1.00;;;;;;;;;;6223346;23;20099;-63
2022/12/31 08:40:20;;;;;;;9.13;1.30;;;;;;;;;;6219234;23;20032;-63
2022/12/31 08:42:55;;;;;;;13.80;1.73;;;;;;;;;;6209557;23;20052;-65
2022/12/31 08:45:25;;;;;;;15.35;2.45;;;;;;;;;;6216334;23;20012;-63
2022/12/31 08:47:58;;;;;;;16.27;1.57;;;;;;;;;;6200535;23;20046;-63
2022/12/31 08:50:27;;;;;;;19.48;1.67;;;;;;;;;;6223384;23;20066;-63
2022/12/31 08:52:55;;;;;;;15.82;2.42;;;;;;;;;;6205784;23;20016;-63
2022/12/31 08:55:23;;;;;;;22.25;2.00;;;;;;;;;;6225401;23;20035;-63
2022/12/31 08:57:57;;;;;;;15.52;1.77;;;;;;;;;;6204871;23;20081;-63
2022/12/31 09:00:27;;;;;;;13.37;2.40;;;;;;;;;;6212873;23;20701;-65
2022/12/31 09:02:59;;;;;;;17.98;2.47;;;;;;;;;;6182618;23;20043;-65
2022/12/31 09:05:32;;;;;;;19.38;2.65;;;;;;;;;;6212351;23;20012;-66
2022/12/31 09:08:11;;;;;;;14.43;1.88;;;;;;;;;;6211414;23;20552;-65
2022/12/31 09:10:40;;;;;;;17.13;2.03;;;;;;;;;;6219965;23;20074;-65
2022/12/31 09:13:12;;;;;;;16.60;2.73;;;;;;;;;;6216132;23;20070;-65
2022/12/31 09:15:43;;;;;;;23.05;2.20;;;;;;;;;;6203622;23;20350;-66
2022/12/31 09:18:12;;;;;;;20.50;2.42;;;;;;;;;;6217877;23;20381;-63
2022/12/31 09:20:40;;;;;;;23.08;2.25;;;;;;;;;;6216545;23;20051;-65
2022/12/31 09:23:11;;;;;;;16.25;1.65;;;;;;;;;;6209450;23;20712;-66
2022/12/31 09:25:42;;;;;;;9.20;1.50;;;;;;;;;;6190087;23;20581;-66
2022/12/31 09:28:14;;;;;;;17.17;1.65;;;;;;;;;;6214103;23;20095;-65
2022/12/31 09:30:46;;;;;;;10.82;1.85;;;;;;;;;;6190664;23;20020;-65
2022/12/31 09:33:16;;;;;;;13.63;1.98;;;;;;;;;;6200127;23;20016;-65
2022/12/31 09:35:47;;;;;;;18.38;1.92;;;;;;;;;;6191223;23;20081;-65
2022/12/31 09:38:18;;;;;;;14.13;1.50;;;;;;;;;;6212652;23;20080;-66
2022/12/31 09:41:06;;;;;;;11.93;1.70;;;;;;;;;;6217090;23;20093;-65
2022/12/31 09:43:52;;;;;;;17.02;2.28;;;;;;;;;;6215533;23;20047;-66
2022/12/31 09:46:40;;;;;;;15.32;2.00;;;;;;;;;;6213930;23;20008;-62
2022/12/31 09:49:26;;;;;;;14.30;1.20;;;;;;;;;;6211642;23;20089;-65
2022/12/31 09:52:00;;;;;;;11.43;1.00;;;;;;;;;;6209483;23;20073;-64
2022/12/31 09:54:36;;;;;;;8.30;1.25;;;;;;;;;;6221154;23;20050;-64
2022/12/31 09:57:16;;;;;;;14.07;2.45;;;;;;;;;;6180742;23;20012;-64
2022/12/31 09:59:46;;;;;;;9.65;1.65;;;;;;;;;;6211226;23;20443;-65
2022/12/31 10:02:19;;;;;;;14.60;1.95;;;;;;;;;;6212078;23;20052;-65
2022/12/31 10:05:00;;;;;;;13.57;1.83;;;;;;;;;;6210107;23;20013;-64
2022/12/31 10:07:35;;;;;;;12.68;0.90;;;;;;;;;;6211615;23;20394;-65
2022/12/31 10:10:09;;;;;;;10.07;1.05;;;;;;;;;;6206237;23;20020;-66
2022/12/31 10:12:54;;;;;;;16.77;1.30;;;;;;;;;;6203097;23;20016;-58
2022/12/31 10:15:35;;;;;;;10.65;1.30;;;;;;;;;;6209225;23;20048;-64
2022/12/31 10:18:09;;;;;;;9.53;1.50;;;;;;;;;;6216230;23;20019;-64
2022/12/31 10:20:44;;;;;;;10.23;1.60;;;;;;;;;;6217058;23;20389;-64
2022/12/31 10:23:32;;;;;;;9.75;1.65;;;;;;;;;;6204968;23;20493;-64
2022/12/31 10:26:11;;;;;;;10.55;1.30;;;;;;;;;;6218987;23;20094;-66
2022/12/31 10:28:45;;;;;;;12.65;1.33;;;;;;;;;;6216732;23;20039;-64
2022/12/31 10:31:14;;;;;;;11.63;1.53;;;;;;;;;;6217639;23;20094;-64
2022/12/31 10:33:44;;;;;;;12.75;1.15;;;;;;;;;;6203897;23;20020;-65
2022/12/31 10:36:18;;;;;;;14.13;1.52;;;;;;;;;;6211932;23;20405;-64
2022/12/31 10:38:49;;;;;;;6.65;0.70;;;;;;;;;;6212628;23;20034;-64
2022/12/31 10:41:38;;;;;;;13.20;1.15;;;;;;;;;;6207524;23;20012;-64
2022/12/31 10:44:20;;;;;;;11.70;1.43;;;;;;;;;;6127330;23;20399;-64
2022/12/31 10:47:02;;;;;;;14.93;1.88;;;;;;;;;;6158122;23;20051;-64
2022/12/31 10:49:47;;;;;;;10.98;1.48;;;;;;;;;;6186038;23;20427;-64
2022/12/31 10:52:48;;;;;;;10.55;1.23;;;;;;;;;;6214720;23;20051;-65
2022/12/31 10:55:39;;;;;;;12.02;1.25;;;;;;;;;;6063007;23;20082;-64
2022/12/31 10:58:25;;;;;;;10.13;1.10;;;;;;;;;;6036542;23;20018;-65
2022/12/31 11:00:54;;;;;;;10.73;1.10;;;;;;;;;;6120255;23;20032;-64
2022/12/31 11:03:47;;;;;;;8.70;0.75;;;;;;;;;;6206322;23;20016;-65
2022/12/31 11:06:39;;;;;;;9.13;0.90;;;;;;;;;;6215658;23;20016;-64
2022/12/31 11:09:27;;;;;;;9.35;1.08;;;;;;;;;;6210393;23;20023;-66
2022/12/31 11:12:08;;;;;;;8.60;1.03;;;;;;;;;;6192041;23;20016;-66
2022/12/31 11:15:01;;;;;;;12.90;1.10;;;;;;;;;;6214319;23;20008;-63
2022/12/31 11:17:38;;;;;;;10.48;1.45;;;;;;;;;;6176065;23;20024;-64
2022/12/31 11:20:30;;;;;;;8.75;0.77;;;;;;;;;;6208382;23;20020;-65
2022/12/31 11:23:03;;;;;;;7.88;1.20;;;;;;;;;;6210841;23;20012;-63
2022/12/31 11:25:34;;;;;;;9.60;1.07;;;;;;;;;;6188781;23;20012;-63
2022/12/31 11:28:08;;;;;;;9.25;1.08;;;;;;;;;;6206755;23;20085;-63
2022/12/31 11:30:44;;;;;;;6.15;1.05;;;;;;;;;;6210779;23;20020;-63
2022/12/31 11:33:17;;;;;;;10.82;1.20;;;;;;;;;;6198031;23;20027;-65
2022/12/31 11:35:55;;;;;;;8.45;0.75;;;;;;;;;;6208309;23;20549;-64
2022/12/31 11:38:25;;;;;;;7.47;1.20;;;;;;;;;;6203944;23;20494;-63
2022/12/31 11:40:58;;;;;;;8.02;0.70;;;;;;;;;;6214662;23;20615;-64
2022/12/31 11:43:30;;;;;;;6.93;1.05;;;;;;;;;;6217915;23;20027;-63
2022/12/31 11:46:08;;;;;;;8.02;0.90;;;;;;;;;;6202623;23;20013;-63
2022/12/31 11:48:40;;;;;;;6.57;0.90;;;;;;;;;;6210763;23;20428;-63
2022/12/31 11:51:22;;;;;;;6.80;0.90;;;;;;;;;;6207610;23;20048;-63
2022/12/31 11:54:03;;;;;;;13.35;1.17;;;;;;;;;;6215026;23;20092;-64
2022/12/31 11:56:33;;;;;;;7.07;0.80;;;;;;;;;;6187634;23;20019;-63
2022/12/31 11:59:02;;;;;;;9.60;1.60;;;;;;;;;;6211004;23;20052;-62
2022/12/31 12:01:46;;;;;;;10.63;1.35;;;;;;;;;;6209153;23;20068;-62
2022/12/31 12:04:15;;;;;;;12.20;1.57;;;;;;;;;;6181036;23;20043;-62
2022/12/31 12:06:44;;;;;;;10.65;1.30;;;;;;;;;;6207231;23;20078;-62
2022/12/31 12:09:14;;;;;;;13.68;1.48;;;;;;;;;;6214860;23;20009;-63
2022/12/31 12:11:42;;;;;;;11.65;1.52;;;;;;;;;;6207728;23;20008;-63
2022/12/31 12:14:28;;;;;;;15.80;1.90;;;;;;;;;;6218638;23;20023;-63
2022/12/31 12:16:57;;;;;;;11.97;1.67;;;;;;;;;;6179310;23;20767;-62
2022/12/31 12:19:32;;;;;;;11.20;1.27;;;;;;;;;;6216096;23;20339;-62
2022/12/31 12:22:09;;;;;;;15.95;1.45;;;;;;;;;;6209619;23;20023;-63
2022/12/31 12:24:36;;;;;;;12.75;1.20;;;;;;;;;;6173123;23;20639;-63
2022/12/31 12:27:04;;;;;;;6.28;0.88;;;;;;;;;;6221343;23;20012;-62
2022/12/31 12:29:34;;;;;;;8.10;1.27;;;;;;;;;;6177130;23;20814;-63
2022/12/31 12:32:04;;;;;;;6.32;0.90;;;;;;;;;;6214401;23;20021;-63
2022/12/31 12:34:35;;;;;;;7.07;0.90;;;;;;;;;;6216211;23;20047;-64
2022/12/31 12:37:03;;;;;;;7.93;0.98;;;;;;;;;;6220865;23;20020;-62
2022/12/31 12:39:32;;;;;;;8.75;0.73;;;;;;;;;;6210179;23;20012;-63
2022/12/31 12:42:02;;;;;;;8.00;0.70;;;;;;;;;;6213707;23;20023;-61
2022/12/31 12:44:30;;;;;;;6.07;0.63;;;;;;;;;;6204122;23;20522;-62
2022/12/31 12:46:58;;;;;;;5.75;0.68;;;;;;;;;;6216795;23;20478;-62
2022/12/31 12:49:28;;;;;;;7.25;0.93;;;;;;;;;;6202570;23;20197;-62
2022/12/31 12:52:18;;;;;;;4.25;0.80;;;;;;;;;;6211673;23;20040;-62
2022/12/31 12:54:55;;;;;;;4.77;0.63;;;;;;;;;;6139791;23;20375;-63
2022/12/31 12:57:28;;;;;;;5.25;0.43;;;;;;;;;;6194003;23;20354;-63
2022/12/31 12:59:59;;;;;;;6.63;0.60;;;;;;;;;;6216512;23;20069;-63
2022/12/31 13:02:34;;;;;;;6.47;0.55;;;;;;;;;;6208456;23;20335;-62
2022/12/31 13:05:14;;;;;;;4.45;0.32;;;;;;;;;;6213707;23;20012;-62
2022/12/31 13:07:48;;;;;;;3.47;0.37;;;;;;;;;;6208240;23;20358;-62
2022/12/31 13:10:21;;;;;;;2.50;0.30;;;;;;;;;;6213639;23;20040;-61
2022/12/31 13:12:54;;;;;;;3.60;0.50;;;;;;;;;;6206387;23;20016;-61
2022/12/31 13:15:46;;;;;;;2.33;0.40;;;;;;;;;;6212183;23;20468;-61
2022/12/31 13:18:32;;;;;;;1.85;0.28;;;;;;;;;;6201793;23;20455;-61
2022/12/31 13:21:03;;;;;;;3.50;0.53;;;;;;;;;;6211005;23;20016;-61
2022/12/31 13:23:34;;;;;;;2.97;0.30;;;;;;;;;;6206987;23;20062;-61
2022/12/31 13:26:09;;;;;;;1.90;0.30;;;;;;;;;;6214975;23;20070;-62
2022/12/31 13:28:40;;;;;;;2.58;0.40;;;;;;;;;;6204206;23;20016;-63
2022/12/31 13:31:10;;;;;;;2.85;0.47;;;;;;;;;;6218634;23;20069;-63
2022/12/31 13:33:41;;;;;;;1.60;0.20;;;;;;;;;;6179841;23;20020;-62
2022/12/31 13:36:15;;;;;;;2.05;0.30;;;;;;;;;;6174650;23;20094;-63
2022/12/31 13:38:45;;;;;;;2.42;0.40;;;;;;;;;;6211155;23;20046;-65
2022/12/31 13:41:14;;;;;;;2.15;0.35;;;;;;;;;;6209525;23;20525;-62
2022/12/31 13:43:45;;;;;;;2.28;0.40;;;;;;;;;;6214942;23;20024;-62
2022/12/31 13:46:19;;;;;;;2.03;0.30;;;;;;;;;;6201293;23;20126;-59
2022/12/31 13:48:49;;;;;;;2.30;0.35;;;;;;;;;;6214705;23;20020;-62
2022/12/31 13:51:22;;;;;;;3.63;0.40;;;;;;;;;;6205513;23;20819;-63
2022/12/31 13:53:53;;;;;;;3.97;0.40;;;;;;;;;;6214977;23;20039;-62
2022/12/31 13:56:24;;;;;;;1.77;0.20;;;;;;;;;;6177256;23;20099;-62
2022/12/31 13:58:54;;;;;;;4.70;0.50;;;;;;;;;;6211685;23;20020;-62
2022/12/31 14:01:23;;;;;;;2.00;0.30;;;;;;;;;;6206547;23;20047;-63
2022/12/31 14:04:05;;;;;;;2.22;0.40;;;;;;;;;;6197291;23;20016;-62
2022/12/31 14:06:39;;;;;;;2.25;0.30;;;;;;;;;;6210515;23;20099;-63
2022/12/31 14:09:09;;;;;;;3.95;0.40;;;;;;;;;;6192870;23;20463;-63
2022/12/31 14:11:44;;;;;;;3.77;0.40;;;;;;;;;;6212107;23;20051;-64
2022/12/31 14:14:15;;;;;;;2.40;0.80;;;;;;;;;;6189466;23;20431;-63
2022/12/31 14:16:45;;;;;;;3.20;0.30;;;;;;;;;;6214288;23;20035;-64
2022/12/31 14:19:18;;;;;;;4.25;0.47;;;;;;;;;;6217839;23;20022;-63
2022/12/31 14:21:48;;;;;;;4.78;0.60;;;;;;;;;;6203246;23;20020;-63
2022/12/31 14:24:28;;;;;;;4.17;0.40;;;;;;;;;;6214652;23;20568;-63
2022/12/31 14:26:59;;;;;;;3.30;0.40;;;;;;;;;;6218423;23;20070;-58
2022/12/31 14:29:31;;;;;;;5.47;0.40;;;;;;;;;;6206023;23;20039;-64
2022/12/31 14:32:16;;;;;;;3.25;0.40;;;;;;;;;;6213330;23;20051;-63
2022/12/31 14:34:48;;;;;;;4.10;0.40;;;;;;;;;;6211267;23;20012;-62
2022/12/31 14:37:21;;;;;;;4.07;0.70;;;;;;;;;;6159178;23;20012;-62
2022/12/31 14:39:52;;;;;;;3.70;0.30;;;;;;;;;;6175321;23;20020;-62
2022/12/31 14:42:25;;;;;;;3.05;0.40;;;;;;;;;;6178871;23;20062;-62
2022/12/31 14:44:59;;;;;;;2.17;0.38;;;;;;;;;;6176472;23;20048;-62
2022/12/31 14:47:32;;;;;;;3.33;0.60;;;;;;;;;;6157066;23;20440;-63
2022/12/31 14:50:04;;;;;;;3.07;0.70;;;;;;;;;;6176391;23;20075;-63
2022/12/31 14:52:35;;;;;;;4.45;0.57;;;;;;;;;;6198755;23;20031;-63
2022/12/31 14:55:20;;;;;;;4.28;0.40;;;;;;;;;;6211304;23;20047;-63
2022/12/31 14:57:48;;;;;;;8.25;0.50;;;;;;;;;;6204099;23;20039;-63
2022/12/31 15:00:37;;;;;;;3.97;0.50;;;;;;;;;;6199941;23;20438;-63
2022/12/31 15:03:05;;;;;;;4.37;0.70;;;;;;;;;;6209248;23;20095;-64
2022/12/31 15:05:34;;;;;;;7.97;0.52;;;;;;;;;;6200198;23;20024;-61
2022/12/31 15:08:09;;;;;;;4.55;1.02;;;;;;;;;;6209757;23;20017;-62
2022/12/31 15:10:42;;;;;;;5.97;0.88;;;;;;;;;;6207766;23;20070;-61
2022/12/31 15:13:16;;;;;;;5.35;1.20;;;;;;;;;;6179915;23;20566;-61
2022/12/31 15:15:51;;;;;;;10.00;1.23;;;;;;;;;;6182345;23;20493;-61
2022/12/31 15:18:31;;;;;;;6.00;1.10;;;;;;;;;;6201892;23;20062;-61